createdAt,value
2023-02-13T00:01:07.537Z,26.50
2023-02-13T00:03:35.306Z,29.93
2023-02-13T00:06:03.000Z,31.23
2023-02-13T00:08:31.238Z,28.57
2023-02-13T00:10:59.539Z,28.17
2023-02-13T00:13:28.979Z,28.50
2023-02-13T00:15:57.746Z,26.00
2023-02-13T00:18:25.535Z,28.00
2023-02-13T00:21:01.124Z,30.77
2023-02-13T00:23:30.986Z,26.33
2023-02-13T00:25:58.931Z,25.60
2023-02-13T00:28:28.678Z,29.20
2023-02-13T00:31:03.131Z,25.27
2023-02-13T00:33:31.105Z,25.20
2023-02-13T00:36:04.628Z,23.83
2023-02-13T00:38:32.523Z,24.37
2023-02-13T00:41:00.208Z,23.57
2023-02-13T00:43:29.332Z,21.20
2023-02-13T00:45:58.555Z,22.97
2023-02-13T00:48:26.587Z,22.47
2023-02-13T00:50:54.250Z,22.97
2023-02-13T00:53:22.655Z,22.07
2023-02-13T00:55:50.814Z,20.80
2023-02-13T00:58:19.337Z,26.37
2023-02-13T01:00:48.907Z,23.67
2023-02-13T01:03:17.824Z,23.27
2023-02-13T01:05:46.173Z,25.40
2023-02-13T01:08:14.957Z,27.63
2023-02-13T01:10:43.569Z,23.87
2023-02-13T01:13:11.863Z,24.13
2023-02-13T01:15:41.028Z,29.37
2023-02-13T01:18:11.050Z,26.83
2023-02-13T01:20:38.711Z,24.57
2023-02-13T01:23:06.421Z,27.67
2023-02-13T01:25:34.088Z,25.47
2023-02-13T01:28:01.745Z,28.73
2023-02-13T01:30:29.515Z,24.80
2023-02-13T01:32:57.228Z,24.47
2023-02-13T01:35:26.253Z,24.47
2023-02-13T01:37:53.911Z,22.97
2023-02-13T01:40:21.845Z,24.73
2023-02-13T01:42:49.520Z,21.43
2023-02-13T01:45:25.222Z,21.80
2023-02-13T01:47:57.328Z,25.50
2023-02-13T01:50:33.560Z,21.57
2023-02-13T01:53:11.423Z,24.40
2023-02-13T01:55:45.438Z,23.67
2023-02-13T01:58:18.465Z,21.30
2023-02-13T02:00:49.726Z,21.83
2023-02-13T02:03:24.108Z,20.97
2023-02-13T02:05:56.130Z,21.90
2023-02-13T02:08:24.749Z,21.53
2023-02-13T02:10:52.789Z,19.90
2023-02-13T02:13:22.392Z,21.07
2023-02-13T02:15:51.039Z,19.63
2023-02-13T02:18:20.500Z,20.90
2023-02-13T02:21:25.197Z,20.23
2023-02-13T02:24:24.030Z,20.53
2023-02-13T02:27:15.657Z,22.50
2023-02-13T02:30:18.965Z,20.20
2023-02-13T02:33:09.858Z,21.33
2023-02-13T02:35:47.471Z,21.67
2023-02-13T02:38:32.626Z,19.93
2023-02-13T02:41:09.483Z,19.83
2023-02-13T02:43:53.519Z,20.87
2023-02-13T02:46:31.197Z,17.97
2023-02-13T02:49:24.824Z,21.40
2023-02-13T02:52:04.565Z,19.33
2023-02-13T02:54:54.465Z,20.40
2023-02-13T02:57:26.700Z,22.90
2023-02-13T03:00:27.042Z,15.97
2023-02-13T03:03:12.717Z,19.67
2023-02-13T03:06:02.533Z,19.00
2023-02-13T03:08:44.529Z,20.00
2023-02-13T03:11:44.159Z,21.20
2023-02-13T03:14:15.328Z,20.77
2023-02-13T03:17:01.174Z,20.93
2023-02-13T03:19:55.690Z,21.10
2023-02-13T03:22:35.042Z,20.20
2023-02-13T03:25:11.851Z,22.43
2023-02-13T03:28:04.942Z,22.93
2023-02-13T03:30:41.719Z,21.77
2023-02-13T03:33:24.456Z,21.80
2023-02-13T03:36:21.401Z,22.73
2023-02-13T03:38:59.220Z,22.03
2023-02-13T03:41:31.955Z,19.57
2023-02-13T03:44:08.635Z,21.63
2023-02-13T03:46:41.873Z,22.20
2023-02-13T03:49:32.206Z,23.07
2023-02-13T03:52:04.474Z,21.83
2023-02-13T03:54:57.383Z,22.40
2023-02-13T03:57:43.860Z,20.30
2023-02-13T04:00:14.919Z,22.47
2023-02-13T04:02:53.123Z,21.73
2023-02-13T04:05:25.056Z,22.27
2023-02-13T04:07:52.834Z,24.47
2023-02-13T04:10:24.733Z,23.13
2023-02-13T04:12:58.431Z,23.27
2023-02-13T04:15:31.532Z,21.93
2023-02-13T04:18:06.497Z,23.43
2023-02-13T04:20:34.393Z,24.27
2023-02-13T04:23:06.622Z,24.30
2023-02-13T04:25:36.774Z,23.80
2023-02-13T04:28:05.025Z,25.07
2023-02-13T04:30:32.945Z,23.03
2023-02-13T04:33:00.609Z,25.57
2023-02-13T04:35:28.393Z,27.23
2023-02-13T04:37:56.152Z,25.30
2023-02-13T04:40:23.979Z,24.77
2023-02-13T04:42:53.063Z,21.87
2023-02-13T04:45:20.825Z,26.30
2023-02-13T04:47:52.070Z,24.63
2023-02-13T04:50:19.874Z,29.67
2023-02-13T04:52:48.218Z,25.27
2023-02-13T04:55:16.019Z,25.97
2023-02-13T04:57:43.623Z,29.10
2023-02-13T05:00:14.051Z,27.37
2023-02-13T05:02:41.718Z,27.50
2023-02-13T05:05:09.567Z,28.80
2023-02-13T05:07:37.227Z,27.17
2023-02-13T05:10:06.036Z,28.10
2023-02-13T05:12:33.629Z,26.83
2023-02-13T05:15:01.426Z,24.03
2023-02-13T05:17:30.421Z,24.90
2023-02-13T05:19:59.078Z,27.43
2023-02-13T05:22:44.281Z,25.70
2023-02-13T05:25:11.929Z,30.00
2023-02-13T05:27:39.525Z,24.93
2023-02-13T05:30:07.530Z,30.03
2023-02-13T05:32:36.774Z,26.80
2023-02-13T05:35:04.979Z,26.07
2023-02-13T05:37:32.886Z,29.03
2023-02-13T05:40:00.546Z,27.37
2023-02-13T05:42:28.167Z,28.77
2023-02-13T05:44:55.844Z,28.53
2023-02-13T05:47:23.458Z,29.77
2023-02-13T05:49:52.457Z,25.97
2023-02-13T05:52:20.162Z,23.37
2023-02-13T05:54:47.838Z,30.03
2023-02-13T05:57:15.540Z,24.60
2023-02-13T05:59:43.228Z,27.23
2023-02-13T06:02:10.868Z,27.00
2023-02-13T06:04:38.487Z,28.53
2023-02-13T06:07:07.570Z,26.07
2023-02-13T06:09:35.199Z,28.67
2023-02-13T06:12:02.832Z,28.30
2023-02-13T06:14:30.488Z,31.10
2023-02-13T06:16:58.120Z,34.67
2023-02-13T06:19:25.728Z,27.60
2023-02-13T06:21:53.426Z,29.17
2023-02-13T06:24:22.459Z,32.03
2023-02-13T06:26:50.152Z,33.07
2023-02-13T06:29:18.103Z,27.00
2023-02-13T06:31:45.852Z,29.60
2023-02-13T06:34:13.633Z,27.87
2023-02-13T06:36:42.632Z,32.30
2023-02-13T06:39:11.060Z,32.93
2023-02-13T06:41:40.050Z,32.37
2023-02-13T06:44:08.326Z,35.10
2023-02-13T06:46:36.172Z,36.33
2023-02-13T06:49:03.921Z,34.30
2023-02-13T06:51:31.625Z,31.43
2023-02-13T06:53:59.308Z,33.47
2023-02-13T06:56:27.336Z,33.70
2023-02-13T06:58:56.379Z,37.93
2023-02-13T07:01:24.119Z,36.50
2023-02-13T07:03:51.846Z,34.07
2023-02-13T07:06:19.836Z,34.13
2023-02-13T07:08:47.595Z,36.63
2023-02-13T07:11:19.508Z,37.17
2023-02-13T07:13:47.131Z,32.67
2023-02-13T07:16:16.416Z,35.93
2023-02-13T07:18:44.092Z,33.67
2023-02-13T07:21:11.938Z,40.43
2023-02-13T07:23:39.645Z,39.30
2023-02-13T07:26:08.132Z,36.53
2023-02-13T07:28:35.808Z,34.20
2023-02-13T07:31:05.690Z,34.07
2023-02-13T07:33:35.080Z,40.13
2023-02-13T07:36:03.611Z,35.83
2023-02-13T07:38:31.863Z,34.80
2023-02-13T07:41:00.101Z,34.77
2023-02-13T07:43:29.871Z,35.23
2023-02-13T07:45:59.932Z,30.63
2023-02-13T07:48:28.118Z,38.63
2023-02-13T07:51:01.641Z,38.77
2023-02-13T07:53:29.432Z,35.40
2023-02-13T07:55:57.381Z,36.87
2023-02-13T07:58:25.223Z,33.57
2023-02-13T08:00:52.866Z,33.73
2023-02-13T08:03:20.520Z,39.27
2023-02-13T08:05:49.498Z,37.20
2023-02-13T08:08:18.564Z,40.77
2023-02-13T08:11:03.733Z,39.70
2023-02-13T08:13:31.420Z,37.83
2023-02-13T08:15:59.334Z,39.00
2023-02-13T08:18:27.123Z,41.30
2023-02-13T08:20:54.856Z,38.60
2023-02-13T08:23:23.883Z,37.63
2023-02-13T08:25:51.541Z,35.47
2023-02-13T08:28:19.269Z,33.70
2023-02-13T08:30:46.923Z,36.13
2023-02-13T08:33:14.541Z,36.10
2023-02-13T08:35:42.193Z,34.43
2023-02-13T08:38:10.866Z,39.27
2023-02-13T08:40:40.348Z,33.60
2023-02-13T08:43:08.483Z,36.67
2023-02-13T08:45:36.906Z,37.60
2023-02-13T08:48:05.109Z,37.63
2023-02-13T08:50:34.629Z,36.20
2023-02-13T08:53:03.259Z,38.37
2023-02-13T08:55:31.529Z,34.87
2023-02-13T08:58:02.724Z,37.47
2023-02-13T09:00:30.988Z,34.57
2023-02-13T09:03:01.633Z,35.60
2023-02-13T09:05:31.585Z,35.23
2023-02-13T09:08:01.034Z,35.67
2023-02-13T09:10:28.678Z,38.83
2023-02-13T09:12:56.324Z,35.83
2023-02-13T09:15:25.314Z,32.67
2023-02-13T09:17:52.962Z,31.10
2023-02-13T09:20:20.828Z,34.60
2023-02-13T09:22:48.600Z,27.27
2023-02-13T09:25:16.440Z,31.87
2023-02-13T09:27:44.199Z,29.20
2023-02-13T09:30:14.696Z,29.10
2023-02-13T09:32:43.932Z,26.37
2023-02-13T09:35:11.581Z,24.50
2023-02-13T09:37:39.256Z,27.57
2023-02-13T09:40:08.542Z,27.03
2023-02-13T09:42:37.837Z,24.50
2023-02-13T09:45:09.293Z,23.03
2023-02-13T09:47:40.854Z,23.00
2023-02-13T09:50:15.798Z,19.02
2023-02-13T09:52:46.549Z,20.25
2023-02-13T09:55:19.473Z,20.15
2023-02-13T09:57:54.358Z,18.13
2023-02-13T10:00:25.841Z,22.88
2023-02-13T10:03:19.173Z,18.48
2023-02-13T10:06:00.157Z,17.45
2023-02-13T10:08:54.504Z,18.38
2023-02-13T10:11:35.895Z,18.15
2023-02-13T10:14:12.796Z,15.85
2023-02-13T10:16:44.415Z,22.80
2023-02-13T10:19:20.349Z,15.68
2023-02-13T10:21:54.615Z,13.68
2023-02-13T10:24:32.152Z,17.20
2023-02-13T10:27:02.159Z,17.40
2023-02-13T10:30:01.735Z,18.23
2023-02-13T10:32:36.912Z,16.67
2023-02-13T10:35:17.143Z,19.48
2023-02-13T10:37:51.034Z,15.52
2023-02-13T10:40:20.201Z,15.90
2023-02-13T10:42:57.842Z,19.75
2023-02-13T10:45:43.415Z,17.17
2023-02-13T10:48:27.387Z,17.38
2023-02-13T10:51:03.851Z,15.27
2023-02-13T10:53:50.092Z,17.13
2023-02-13T10:56:28.388Z,17.30
2023-02-13T10:59:08.068Z,16.20
2023-02-13T11:01:43.842Z,14.68
2023-02-13T11:04:15.069Z,15.30
2023-02-13T11:06:44.869Z,16.88
2023-02-13T11:09:14.159Z,18.00
2023-02-13T11:11:43.866Z,16.05
2023-02-13T11:14:15.027Z,15.75
2023-02-13T11:16:50.194Z,17.08
2023-02-13T11:19:21.050Z,20.10
2023-02-13T11:21:54.028Z,19.88
2023-02-13T11:24:25.440Z,15.20
2023-02-13T11:26:55.948Z,15.27
2023-02-13T11:29:27.631Z,17.27
2023-02-13T11:32:25.520Z,20.42
2023-02-13T11:34:54.804Z,14.93
2023-02-13T11:37:25.850Z,14.77
2023-02-13T11:39:56.818Z,13.52
2023-02-13T11:42:30.493Z,11.45
2023-02-13T11:45:01.998Z,14.65
2023-02-13T11:47:48.089Z,13.57
2023-02-13T11:50:25.938Z,15.20
2023-02-13T11:52:59.647Z,12.75
2023-02-13T11:55:40.001Z,12.32
2023-02-13T11:58:25.117Z,12.57
2023-02-13T12:01:10.147Z,12.68
2023-02-13T12:03:38.848Z,13.00
2023-02-13T12:06:13.772Z,18.00
2023-02-13T12:08:43.154Z,16.08
2023-02-13T12:11:25.750Z,14.60
2023-02-13T12:13:54.009Z,13.85
2023-02-13T12:16:31.001Z,16.35
2023-02-13T12:19:01.781Z,13.13
2023-02-13T12:21:43.966Z,19.98
2023-02-13T12:24:25.891Z,13.75
2023-02-13T12:27:00.944Z,16.45
2023-02-13T12:29:54.907Z,16.52
2023-02-13T12:32:33.281Z,14.90
2023-02-13T12:35:19.387Z,18.15
2023-02-13T12:38:09.848Z,14.10
2023-02-13T12:41:03.150Z,14.15
2023-02-13T12:44:06.439Z,11.63
2023-02-13T12:46:41.715Z,13.63
2023-02-13T12:49:22.552Z,12.60
2023-02-13T12:52:00.161Z,13.27
2023-02-13T12:54:42.859Z,14.33
2023-02-13T12:57:29.583Z,14.33
2023-02-13T13:00:23.363Z,18.00
2023-02-13T13:03:22.884Z,14.88
2023-02-13T13:06:11.819Z,19.67
2023-02-13T13:08:56.369Z,14.55
2023-02-13T13:11:38.907Z,12.50
2023-02-13T13:14:13.197Z,12.02
2023-02-13T13:16:51.536Z,12.60
2023-02-13T13:19:28.974Z,12.68
2023-02-13T13:22:01.673Z,16.92
2023-02-13T13:24:48.402Z,15.00
2023-02-13T13:27:21.537Z,16.13
2023-02-13T13:29:56.282Z,13.65
2023-02-13T13:32:27.274Z,11.95
2023-02-13T13:34:55.949Z,11.77
2023-02-13T13:37:32.637Z,14.77
2023-02-13T13:40:07.459Z,24.50
2023-02-13T13:42:41.342Z,24.38
2023-02-13T13:45:31.547Z,15.98
2023-02-13T13:48:18.047Z,14.30
2023-02-13T13:50:46.659Z,12.97
2023-02-13T13:53:19.097Z,12.70
2023-02-13T13:56:09.312Z,14.40
2023-02-13T13:58:43.238Z,18.70
2023-02-13T14:01:23.365Z,17.40
2023-02-13T14:03:54.614Z,20.23
2023-02-13T14:06:23.837Z,13.53
2023-02-13T14:09:37.957Z,12.83
2023-02-13T14:12:39.514Z,14.73
2023-02-13T14:15:46.236Z,13.60
2023-02-13T14:18:22.039Z,17.40
2023-02-13T14:20:56.909Z,15.00
2023-02-13T14:23:33.882Z,18.07
2023-02-13T14:26:13.037Z,14.33
2023-02-13T14:28:43.147Z,15.13
2023-02-13T14:31:22.455Z,18.10
2023-02-13T14:33:57.239Z,17.73
2023-02-13T14:36:32.276Z,20.87
2023-02-13T14:39:02.634Z,17.47
2023-02-13T14:41:43.343Z,19.00
2023-02-13T14:44:20.098Z,12.93
2023-02-13T14:46:50.442Z,17.27
2023-02-13T14:49:20.969Z,15.37
2023-02-13T14:51:52.444Z,12.17
2023-02-13T14:54:28.601Z,14.90
2023-02-13T14:57:06.025Z,17.13
2023-02-13T14:59:40.331Z,18.23
2023-02-13T15:02:19.931Z,14.70
2023-02-13T15:04:50.725Z,18.77
2023-02-13T15:07:23.960Z,20.43
2023-02-13T15:09:54.242Z,21.40
2023-02-13T15:12:30.358Z,21.43
2023-02-13T15:14:58.320Z,18.87
2023-02-13T15:17:30.052Z,16.83
2023-02-13T15:20:04.776Z,19.73
2023-02-13T15:22:36.628Z,24.07
2023-02-13T15:25:07.810Z,22.43
2023-02-13T15:27:41.658Z,20.40
2023-02-13T15:30:20.835Z,19.90
2023-02-13T15:32:56.453Z,24.60
2023-02-13T15:35:26.532Z,27.00
2023-02-13T15:37:55.891Z,21.27
2023-02-13T15:40:26.964Z,18.93
2023-02-13T15:42:55.573Z,25.47
2023-02-13T15:45:26.105Z,24.63
2023-02-13T15:47:56.000Z,27.43
2023-02-13T15:50:34.134Z,17.97
2023-02-13T15:53:05.875Z,20.50
2023-02-13T15:55:36.600Z,19.47
2023-02-13T15:58:05.019Z,15.67
2023-02-13T16:00:35.699Z,19.87
2023-02-13T16:03:06.936Z,15.70
2023-02-13T16:05:41.336Z,19.57
2023-02-13T16:08:31.302Z,19.27
2023-02-13T16:11:30.894Z,17.77
2023-02-13T16:14:17.955Z,19.73
2023-02-13T16:16:52.331Z,17.07
2023-02-13T16:19:38.034Z,20.80
2023-02-13T16:22:17.021Z,16.73
2023-02-13T16:24:51.832Z,20.37
2023-02-13T16:27:22.587Z,15.60
2023-02-13T16:29:55.637Z,21.93
2023-02-13T16:32:29.356Z,21.13
2023-02-13T16:34:58.207Z,21.30
2023-02-13T16:37:33.144Z,54.77
2023-02-13T16:40:34.406Z,28.90
2023-02-13T16:43:38.038Z,22.90
2023-02-13T16:46:34.171Z,26.53
2023-02-13T16:49:15.480Z,26.33
2023-02-13T16:51:45.704Z,27.80
2023-02-13T16:54:21.098Z,25.07
2023-02-13T16:56:51.301Z,30.67
2023-02-13T16:59:29.528Z,24.17
2023-02-13T17:02:18.090Z,27.00
2023-02-13T17:04:48.042Z,24.10
2023-02-13T17:07:19.501Z,30.23
2023-02-13T17:09:54.298Z,28.67
2023-02-13T17:12:22.443Z,24.57
2023-02-13T17:14:51.537Z,29.13
2023-02-13T17:17:20.835Z,31.63
2023-02-13T17:19:49.393Z,30.83
2023-02-13T17:22:34.162Z,29.70
2023-02-13T17:25:03.677Z,31.13
2023-02-13T17:27:31.673Z,30.90
2023-02-13T17:30:00.752Z,34.43
2023-02-13T17:32:29.094Z,26.33
2023-02-13T17:34:56.879Z,41.63
2023-02-13T17:37:26.163Z,34.03
2023-02-13T17:39:55.011Z,31.33
2023-02-13T17:42:25.679Z,30.90
2023-02-13T17:44:54.098Z,35.10
2023-02-13T17:47:23.793Z,36.37
2023-02-13T17:49:53.561Z,31.73
2023-02-13T17:52:27.614Z,30.97
2023-02-13T17:54:55.528Z,29.83
2023-02-13T17:57:23.228Z,36.77
2023-02-13T17:59:51.034Z,36.63
2023-02-13T18:02:20.310Z,37.47
2023-02-13T18:04:50.842Z,36.10
2023-02-13T18:07:21.021Z,38.87
2023-02-13T18:09:49.184Z,33.53
2023-02-13T18:12:18.693Z,35.37
2023-02-13T18:14:46.467Z,35.50
2023-02-13T18:17:14.407Z,37.60
2023-02-13T18:19:42.382Z,32.83
2023-02-13T18:22:11.924Z,39.43
2023-02-13T18:24:43.097Z,37.77
2023-02-13T18:27:12.615Z,34.97
2023-02-13T18:29:40.755Z,40.73
2023-02-13T18:32:10.768Z,40.40
2023-02-13T18:34:39.160Z,38.80
2023-02-13T18:37:08.241Z,42.60
2023-02-13T18:39:37.238Z,45.83
2023-02-13T18:42:05.260Z,38.53
2023-02-13T18:44:33.427Z,42.33
2023-02-13T18:47:01.746Z,43.60
2023-02-13T18:49:29.370Z,46.13
2023-02-13T18:51:57.069Z,47.30
2023-02-13T18:54:24.777Z,45.37
2023-02-13T18:56:53.768Z,44.20
2023-02-13T18:59:23.023Z,42.37
2023-02-13T19:01:50.801Z,41.33
2023-02-13T19:04:18.557Z,40.80
2023-02-13T19:06:46.286Z,44.37
2023-02-13T19:09:14.217Z,41.67
2023-02-13T19:11:42.830Z,41.50
2023-02-13T19:14:15.002Z,44.77
2023-02-13T19:16:43.151Z,43.07
2023-02-13T19:19:11.400Z,41.90
2023-02-13T19:21:40.082Z,44.80
2023-02-13T19:24:09.972Z,43.37
2023-02-13T19:26:38.288Z,37.80
2023-02-13T19:29:05.915Z,46.63
2023-02-13T19:31:35.435Z,41.07
2023-02-13T19:34:05.581Z,41.80
2023-02-13T19:36:33.512Z,38.10
2023-02-13T19:39:03.374Z,37.77
2023-02-13T19:41:31.234Z,38.73
2023-02-13T19:44:00.137Z,40.80
2023-02-13T19:46:29.609Z,40.07
2023-02-13T19:48:58.896Z,38.47
2023-02-13T19:51:28.511Z,41.77
2023-02-13T19:53:57.534Z,42.37
2023-02-13T19:56:27.012Z,37.17
2023-02-13T19:58:55.484Z,41.70
2023-02-13T20:01:25.465Z,61.50
2023-02-13T20:03:54.284Z,64.80
2023-02-13T20:06:25.513Z,54.17
2023-02-13T20:08:53.884Z,59.43
2023-02-13T20:11:23.019Z,60.10
2023-02-13T20:13:56.508Z,61.30
2023-02-13T20:16:24.766Z,69.43
2023-02-13T20:18:52.570Z,63.07
2023-02-13T20:21:20.908Z,64.93
2023-02-13T20:23:51.876Z,57.20
2023-02-13T20:26:20.454Z,56.70
2023-02-13T20:28:48.881Z,59.33
2023-02-13T20:31:18.285Z,50.97
2023-02-13T20:33:47.148Z,55.43
2023-02-13T20:36:16.624Z,49.80
2023-02-13T20:38:44.447Z,47.13
2023-02-13T20:41:15.969Z,43.73
2023-02-13T20:43:43.747Z,42.67
2023-02-13T20:46:12.980Z,40.47
2023-02-13T20:48:41.816Z,39.57
2023-02-13T20:51:11.938Z,39.33
2023-02-13T20:53:39.870Z,41.83
2023-02-13T20:56:10.620Z,41.07
2023-02-13T20:58:41.259Z,51.43
2023-02-13T21:01:12.851Z,52.43
2023-02-13T21:03:41.205Z,49.33
2023-02-13T21:06:10.685Z,44.47
2023-02-13T21:08:38.979Z,44.70
2023-02-13T21:11:08.207Z,51.47
2023-02-13T21:13:36.475Z,48.60
2023-02-13T21:16:07.744Z,52.43
2023-02-13T21:18:35.478Z,52.70
2023-02-13T21:21:03.506Z,50.40
2023-02-13T21:23:31.612Z,61.00
2023-02-13T21:26:02.873Z,52.27
2023-02-13T21:28:30.572Z,42.70
2023-02-13T21:30:58.584Z,40.70
2023-02-13T21:33:27.803Z,53.73
2023-02-13T21:36:01.638Z,48.37
2023-02-13T21:38:29.350Z,41.13
2023-02-13T21:40:58.006Z,40.77
2023-02-13T21:43:25.891Z,39.90
2023-02-13T21:45:53.520Z,35.97
2023-02-13T21:48:21.237Z,37.93
2023-02-13T21:50:50.302Z,38.63
2023-02-13T21:53:17.989Z,36.13
2023-02-13T21:55:45.597Z,35.17
2023-02-13T21:58:13.328Z,36.20
2023-02-13T22:00:41.007Z,32.37
2023-02-13T22:03:08.764Z,38.87
2023-02-13T22:05:36.586Z,36.17
2023-02-13T22:08:11.758Z,40.60
2023-02-13T22:10:39.408Z,36.93
2023-02-13T22:13:07.237Z,30.40
2023-02-13T22:15:34.885Z,45.10
2023-02-13T22:18:02.542Z,39.47
2023-02-13T22:20:30.174Z,36.47
2023-02-13T22:22:57.771Z,41.90
2023-02-13T22:25:26.873Z,35.23
2023-02-13T22:27:54.573Z,38.17
2023-02-13T22:30:22.314Z,39.00
2023-02-13T22:32:50.022Z,37.40
2023-02-13T22:35:17.754Z,32.37
2023-02-13T22:37:45.392Z,31.43
2023-02-13T22:40:13.674Z,33.33
2023-02-13T22:42:42.629Z,33.03
2023-02-13T22:45:10.756Z,39.77
2023-02-13T22:47:38.407Z,31.57
2023-02-13T22:50:07.390Z,31.73
2023-02-13T22:52:35.053Z,35.37
2023-02-13T22:55:02.706Z,31.03
2023-02-13T22:57:30.382Z,33.23
2023-02-13T22:59:59.353Z,29.77
2023-02-13T23:02:27.452Z,31.43
2023-02-13T23:04:55.089Z,26.80
2023-02-13T23:07:22.756Z,28.63
2023-02-13T23:09:50.623Z,32.00
2023-02-13T23:12:36.157Z,29.57
2023-02-13T23:15:06.593Z,32.53
2023-02-13T23:17:51.919Z,29.27
2023-02-13T23:20:21.159Z,31.17
2023-02-13T23:22:49.074Z,26.90
2023-02-13T23:25:16.857Z,29.53
2023-02-13T23:27:44.748Z,25.00
2023-02-13T23:30:16.425Z,29.63
2023-02-13T23:32:44.192Z,26.73
2023-02-13T23:35:12.112Z,24.80
2023-02-13T23:37:39.789Z,23.90
2023-02-13T23:40:09.530Z,23.47
2023-02-13T23:42:37.238Z,22.47
2023-02-13T23:45:05.693Z,23.20
2023-02-13T23:47:34.685Z,23.57
2023-02-13T23:50:02.442Z,26.43
2023-02-13T23:52:30.200Z,25.53
2023-02-13T23:54:57.921Z,25.53
2023-02-13T23:57:25.637Z,26.63
2023-02-13T23:59:53.389Z,24.37
